Time;durP1;ratioP1;P1;durP2;ratioP2;P2;SDS_P1;SDS_P2;PMS_P1;PMS_P2;Temp;Humidity;BMP_temperature;BMP_pressure;BME280_temperature;BME280_humidity;BME280_pressure;Samples;Min_cycle;Max_cycle;Signal;HPM_P1;HPM_P2
2022/05/12 00:01:59;;;;;;;9.67;2.93;;;13.20;97.90;;;;;;5083194;28;20692;-81
2022/05/12 00:04:28;;;;;;;9.10;3.20;;;13.10;97.80;;;;;;5074878;28;20802;-82
2022/05/12 00:06:54;;;;;;;10.57;3.40;;;13.10;97.90;;;;;;5079320;28;20212;-82
2022/05/12 00:09:22;;;;;;;8.80;3.07;;;13.10;97.90;;;;;;5071293;28;20217;-82
2022/05/12 00:11:48;;;;;;;7.67;3.20;;;13.10;97.80;;;;;;5076125;28;20706;-82
2022/05/12 00:14:16;;;;;;;10.90;3.13;;;13.10;97.80;;;;;;5071629;28;20911;-82
2022/05/12 00:16:43;;;;;;;6.80;3.13;;;13.00;98.20;;;;;;5076866;28;20224;-82
2022/05/12 00:19:09;;;;;;;10.13;3.70;;;13.00;98.50;;;;;;5077782;28;20718;-82
2022/05/12 00:21:37;;;;;;;11.17;3.50;;;13.00;98.40;;;;;;5081250;28;20232;-82
2022/05/12 00:24:05;;;;;;;10.87;3.37;;;13.00;98.70;;;;;;5076325;28;20221;-82
2022/05/12 00:26:35;;;;;;;12.33;3.60;;;13.00;98.60;;;;;;5079957;28;20235;-82
2022/05/12 00:29:06;;;;;;;9.57;3.20;;;13.00;98.80;;;;;;5078155;28;20292;-82
2022/05/12 00:31:35;;;;;;;11.93;3.63;;;13.00;99.10;;;;;;5080564;28;20258;-81
2022/05/12 00:34:02;;;;;;;8.33;3.10;;;13.00;98.90;;;;;;5076314;28;20242;-82
2022/05/12 00:36:28;;;;;;;10.40;3.53;;;12.90;99.10;;;;;;5080380;28;20234;-81
2022/05/12 00:38:56;;;;;;;10.00;3.20;;;12.90;99.20;;;;;;5084860;28;20231;-81
2022/05/12 00:41:23;;;;;;;9.40;3.10;;;12.90;99.30;;;;;;5075585;28;20221;-81
2022/05/12 00:43:52;;;;;;;10.87;3.77;;;12.90;99.30;;;;;;5078109;28;20235;-81
2022/05/12 00:46:21;;;;;;;11.13;3.60;;;13.00;99.50;;;;;;5079895;28;20717;-82
2022/05/12 00:48:49;;;;;;;8.73;3.10;;;13.00;99.40;;;;;;5083483;28;20624;-82
2022/05/12 00:51:20;;;;;;;13.57;3.60;;;13.00;99.50;;;;;;5076070;28;20250;-80
2022/05/12 00:53:49;;;;;;;9.97;3.10;;;13.00;99.60;;;;;;5079418;28;20213;-83
2022/05/12 00:56:22;;;;;;;10.70;3.40;;;13.00;99.60;;;;;;5084093;28;20219;-83
2022/05/12 00:58:52;;;;;;;6.03;2.97;;;13.00;99.90;;;;;;5085745;28;20222;-84
2022/05/12 01:01:18;;;;;;;11.63;3.40;;;13.10;99.90;;;;;;5081657;28;20325;-83
2022/05/12 01:03:47;;;;;;;11.47;3.37;;;13.00;99.80;;;;;;5078961;28;20229;-81
2022/05/12 01:06:15;;;;;;;9.33;3.67;;;13.10;99.90;;;;;;5085502;28;20815;-82
2022/05/12 01:08:43;;;;;;;10.23;3.20;;;13.10;99.80;;;;;;5087302;28;20674;-81
2022/05/12 01:11:13;;;;;;;9.87;3.27;;;13.00;99.80;;;;;;5082149;28;20958;-81
2022/05/12 01:13:43;;;;;;;7.97;3.30;;;13.10;99.90;;;;;;5084861;28;20225;-81
2022/05/12 01:16:10;;;;;;;9.83;3.77;;;13.00;99.90;;;;;;5087047;28;20639;-81
2022/05/12 01:18:40;;;;;;;9.67;3.40;;;13.00;99.90;;;;;;5086010;28;20290;-81
2022/05/12 01:21:08;;;;;;;9.17;3.70;;;13.00;99.90;;;;;;5085452;28;20648;-81
2022/05/12 01:23:38;;;;;;;10.83;3.80;;;13.00;99.90;;;;;;5084383;28;20289;-81
2022/05/12 01:26:08;;;;;;;10.60;3.63;;;13.00;99.90;;;;;;5085660;28;20315;-82
2022/05/12 01:28:36;;;;;;;9.67;3.43;;;13.00;99.90;;;;;;5086034;28;20267;-82
2022/05/12 01:31:04;;;;;;;9.50;3.60;;;13.00;99.90;;;;;;5084542;28;20227;-82
2022/05/12 01:33:31;;;;;;;9.10;3.83;;;13.00;99.90;;;;;;5076554;28;20242;-82
2022/05/12 01:35:58;;;;;;;11.80;3.80;;;13.00;99.90;;;;;;5083583;28;20224;-83
2022/05/12 01:38:25;;;;;;;8.20;3.27;;;13.00;99.90;;;;;;5080446;28;20240;-81
2022/05/12 01:40:53;;;;;;;7.93;3.60;;;13.00;99.90;;;;;;5085222;28;20228;-82
2022/05/12 01:43:20;;;;;;;12.27;3.77;;;13.00;99.90;;;;;;5084571;28;20232;-82
2022/05/12 01:45:47;;;;;;;8.73;3.57;;;13.00;99.90;;;;;;5086471;28;20249;-81
2022/05/12 01:48:16;;;;;;;7.00;3.77;;;13.00;99.90;;;;;;5080495;28;20738;-82
2022/05/12 01:50:44;;;;;;;7.43;3.77;;;13.00;99.90;;;;;;5100347;28;20313;-82
2022/05/12 01:53:12;;;;;;;10.73;3.70;;;13.00;99.90;;;;;;5080000;28;20296;-83
2022/05/12 01:55:40;;;;;;;7.57;3.67;;;13.00;99.90;;;;;;5102395;28;20215;-82
2022/05/12 01:58:08;;;;;;;6.70;3.23;;;13.00;99.90;;;;;;5081708;28;20645;-83
2022/05/12 02:00:36;;;;;;;7.93;3.83;;;13.00;99.90;;;;;;5084609;28;20245;-83
2022/05/12 02:03:04;;;;;;;11.27;4.30;;;13.10;99.90;;;;;;5084659;28;20253;-82
2022/05/12 02:05:32;;;;;;;8.60;3.37;;;13.00;99.90;;;;;;5085138;28;20236;-81
2022/05/12 02:07:59;;;;;;;7.43;3.37;;;13.00;99.90;;;;;;5077780;28;20227;-81
2022/05/12 02:10:28;;;;;;;7.67;3.23;;;13.10;99.90;;;;;;5081765;28;20238;-81
2022/05/12 02:12:55;;;;;;;7.37;3.40;;;13.00;99.90;;;;;;5080761;28;20225;-81
2022/05/12 02:15:24;;;;;;;8.40;3.30;;;12.90;99.90;;;;;;5076761;28;20236;-81
2022/05/12 02:17:52;;;;;;;7.67;3.07;;;12.90;99.90;;;;;;5084973;28;20269;-82
2022/05/12 02:20:21;;;;;;;4.13;2.37;;;12.90;99.90;;;;;;5081846;28;20220;-81
2022/05/12 02:22:47;;;;;;;7.03;2.73;;;12.90;99.90;;;;;;5081621;28;20650;-82
2022/05/12 02:25:14;;;;;;;6.17;2.67;;;12.90;99.90;;;;;;5080357;28;20229;-82
2022/05/12 02:27:46;;;;;;;5.73;2.40;;;12.90;99.90;;;;;;5080095;28;20229;-82
2022/05/12 02:30:15;;;;;;;5.03;2.83;;;12.90;99.90;;;;;;5084761;28;20224;-84
2022/05/12 02:32:43;;;;;;;6.07;2.93;;;13.00;99.90;;;;;;5081276;28;20226;-85
2022/05/12 02:35:11;;;;;;;6.07;3.00;;;12.90;99.90;;;;;;5081037;28;20226;-84
2022/05/12 02:37:39;;;;;;;6.63;3.07;;;12.90;99.90;;;;;;5078524;28;20314;-86
2022/05/12 02:40:07;;;;;;;4.33;2.63;;;12.80;99.90;;;;;;5082620;28;20736;-84
2022/05/12 02:42:33;;;;;;;4.57;2.83;;;12.60;99.90;;;;;;5062794;28;20253;-84
2022/05/12 02:45:00;;;;;;;7.40;3.33;;;12.50;99.90;;;;;;5084895;28;20225;-84
2022/05/12 02:47:27;;;;;;;8.03;3.20;;;12.40;99.90;;;;;;5084349;28;20233;-84
2022/05/12 02:49:55;;;;;;;8.13;3.10;;;12.30;99.90;;;;;;5082969;28;20272;-83
2022/05/12 02:52:22;;;;;;;7.03;3.30;;;12.20;99.90;;;;;;5081901;28;20230;-84
2022/05/12 02:54:48;;;;;;;8.97;3.47;;;12.10;99.90;;;;;;5079674;28;20219;-84
2022/05/12 02:57:15;;;;;;;4.07;3.10;;;12.00;99.90;;;;;;5077998;28;20230;-83
2022/05/12 02:59:42;;;;;;;5.33;2.93;;;11.90;99.90;;;;;;5074979;28;20226;-84
2022/05/12 03:02:09;;;;;;;6.57;2.73;;;11.80;99.90;;;;;;5078573;28;20226;-83
2022/05/12 03:04:36;;;;;;;4.97;1.87;;;11.80;99.90;;;;;;5080968;28;20221;-83
2022/05/12 03:07:04;;;;;;;4.07;1.30;;;11.70;99.90;;;;;;5077666;28;20217;-83
2022/05/12 03:09:31;;;;;;;1.30;1.10;;;11.60;99.90;;;;;;5079943;28;20234;-83
2022/05/12 03:11:58;;;;;;;3.97;1.00;;;11.50;99.90;;;;;;5082904;28;20249;-83
2022/05/12 03:14:25;;;;;;;2.17;0.90;;;11.50;99.90;;;;;;5074786;28;20236;-83
2022/05/12 03:16:53;;;;;;;2.77;0.97;;;11.40;99.90;;;;;;5083889;28;20215;-83
2022/05/12 03:19:20;;;;;;;2.97;1.30;;;11.30;99.90;;;;;;5085337;28;20621;-83
2022/05/12 03:21:47;;;;;;;3.23;1.13;;;11.30;99.90;;;;;;5082611;28;20586;-83
2022/05/12 03:24:16;;;;;;;2.73;1.60;;;11.20;99.90;;;;;;5079635;28;20931;-83
2022/05/12 03:26:43;;;;;;;2.63;1.50;;;11.10;99.90;;;;;;5081557;28;20217;-83
2022/05/12 03:29:09;;;;;;;2.00;1.47;;;11.00;99.90;;;;;;5082118;28;20215;-83
2022/05/12 03:31:36;;;;;;;2.60;1.40;;;11.00;99.90;;;;;;5080039;28;20286;-83
2022/05/12 03:34:03;;;;;;;1.87;1.40;;;11.00;99.90;;;;;;5082198;28;20221;-82
2022/05/12 03:36:35;;;;;;;4.70;1.47;;;11.00;99.90;;;;;;5078300;28;20306;-82
2022/05/12 03:39:02;;;;;;;2.70;1.20;;;10.90;99.90;;;;;;5077570;28;20648;-81
2022/05/12 03:41:30;;;;;;;1.93;1.17;;;10.90;99.90;;;;;;5080071;28;20227;-82
2022/05/12 03:46:42;;;;;;;1.97;1.30;;;10.90;99.90;;;;;;5078159;28;20311;-82
2022/05/12 03:49:09;;;;;;;3.17;1.37;;;10.90;99.90;;;;;;5074501;28;20247;-82
2022/05/12 03:51:35;;;;;;;2.80;1.60;;;10.90;99.90;;;;;;5078408;28;20249;-82
2022/05/12 03:54:03;;;;;;;3.23;1.37;;;10.90;99.90;;;;;;5074058;28;20221;-82
2022/05/12 03:56:32;;;;;;;2.17;1.13;;;10.90;99.90;;;;;;5080279;28;20351;-82
2022/05/12 03:58:58;;;;;;;3.20;1.80;;;10.80;99.90;;;;;;5076648;28;20625;-82
2022/05/12 04:01:25;;;;;;;4.97;1.60;;;10.80;99.90;;;;;;5077611;28;20290;-82
2022/05/12 04:03:52;;;;;;;2.33;1.37;;;10.80;99.90;;;;;;5075336;28;20234;-83
2022/05/12 04:06:19;;;;;;;3.27;1.90;;;10.80;99.90;;;;;;5076886;28;20295;-82
2022/05/12 04:08:46;;;;;;;5.23;1.70;;;10.80;99.90;;;;;;5076842;28;20227;-82
2022/05/12 04:11:12;;;;;;;5.03;1.90;;;10.80;99.90;;;;;;5076914;28;20601;-82
2022/05/12 04:13:41;;;;;;;3.90;1.90;;;10.80;99.90;;;;;;5076640;28;20311;-82
2022/05/12 04:16:08;;;;;;;5.10;1.90;;;10.80;99.90;;;;;;5081470;28;20620;-82
2022/05/12 04:18:35;;;;;;;4.30;1.97;;;10.80;99.90;;;;;;5077936;28;20269;-83
2022/05/12 04:21:02;;;;;;;4.00;1.63;;;10.80;99.90;;;;;;5083383;28;20227;-82
2022/05/12 04:23:28;;;;;;;2.80;1.97;;;10.80;99.90;;;;;;5085754;28;20227;-81
2022/05/12 04:25:55;;;;;;;6.07;2.00;;;10.80;99.90;;;;;;5081414;28;20218;-83
2022/05/12 04:28:22;;;;;;;3.13;2.03;;;10.80;99.90;;;;;;5081116;28;20215;-84
2022/05/12 04:30:51;;;;;;;7.57;2.30;;;10.80;99.90;;;;;;5076709;28;20600;-83
2022/05/12 04:36:07;;;;;;;6.97;3.10;;;10.80;99.90;;;;;;5043015;28;20307;-82
2022/05/12 04:38:35;;;;;;;5.77;2.30;;;10.80;99.90;;;;;;5081149;28;20714;-82
2022/05/12 04:41:01;;;;;;;8.17;2.67;;;10.80;99.90;;;;;;5084523;28;20239;-83
2022/05/12 04:43:28;;;;;;;7.03;2.90;;;10.80;99.90;;;;;;5076462;28;20233;-81
2022/05/12 04:45:56;;;;;;;6.53;3.53;;;10.90;99.90;;;;;;5080211;28;20304;-82
2022/05/12 04:48:23;;;;;;;7.70;2.60;;;10.90;99.90;;;;;;5077486;28;20249;-82
2022/05/12 04:50:50;;;;;;;12.37;3.10;;;11.00;99.90;;;;;;5082646;28;20730;-83
2022/05/12 04:53:16;;;;;;;7.17;2.60;;;11.10;99.90;;;;;;5081368;28;20223;-82
2022/05/12 04:55:45;;;;;;;4.13;2.43;;;11.10;99.90;;;;;;5083428;28;20637;-81
2022/05/12 04:58:12;;;;;;;6.07;3.33;;;11.10;99.90;;;;;;5079082;28;20396;-82
2022/05/12 05:00:43;;;;;;;8.57;2.87;;;11.20;99.90;;;;;;5086229;28;20305;-82
2022/05/12 05:03:12;;;;;;;9.97;3.03;;;11.20;99.90;;;;;;5077623;28;20845;-82
2022/05/12 05:05:39;;;;;;;6.43;2.80;;;11.20;99.90;;;;;;5076133;28;20226;-82
2022/05/12 05:08:06;;;;;;;5.53;2.90;;;11.20;99.90;;;;;;5084126;28;20221;-82
2022/05/12 05:10:34;;;;;;;6.30;2.90;;;11.20;99.90;;;;;;5081193;28;20227;-82
2022/05/12 05:13:01;;;;;;;6.10;3.13;;;11.20;99.90;;;;;;5080553;28;20223;-83
2022/05/12 05:15:28;;;;;;;7.07;3.17;;;11.20;99.90;;;;;;5079186;28;20677;-81
2022/05/12 05:17:54;;;;;;;5.80;2.67;;;11.20;99.90;;;;;;5082547;28;20225;-82
2022/05/12 05:20:25;;;;;;;10.40;3.40;;;11.20;99.90;;;;;;5084299;28;20226;-82
2022/05/12 05:22:52;;;;;;;8.57;2.83;;;11.20;99.90;;;;;;5082627;28;20248;-83
2022/05/12 05:25:19;;;;;;;6.13;2.60;;;11.20;99.90;;;;;;5081950;28;20221;-80
2022/05/12 05:27:46;;;;;;;7.00;3.07;;;11.30;99.90;;;;;;5078559;28;20226;-83
2022/05/12 05:30:17;;;;;;;8.80;2.90;;;11.30;99.90;;;;;;5082624;28;20253;-82
2022/05/12 05:32:43;;;;;;;5.43;3.00;;;11.40;99.90;;;;;;5080620;28;20219;-83
2022/05/12 05:35:12;;;;;;;8.20;2.93;;;11.30;99.90;;;;;;5072670;28;20718;-83
2022/05/12 05:37:40;;;;;;;8.40;3.50;;;11.40;99.90;;;;;;5082381;28;20256;-83
2022/05/12 05:40:09;;;;;;;7.60;2.73;;;11.40;99.90;;;;;;5082683;28;20223;-83
2022/05/12 05:42:38;;;;;;;7.53;2.90;;;11.40;99.90;;;;;;5087752;28;20861;-82
2022/05/12 05:45:10;;;;;;;6.57;2.70;;;11.50;99.90;;;;;;5088400;28;20912;-83
2022/05/12 05:47:38;;;;;;;7.73;2.80;;;11.40;99.90;;;;;;5085836;28;20251;-83
2022/05/12 05:50:08;;;;;;;5.67;2.60;;;11.40;99.90;;;;;;5089959;28;20254;-82
2022/05/12 05:55:22;;;;;;;7.33;2.97;;;11.40;99.90;;;;;;5084371;28;20828;-82
2022/05/12 05:57:49;;;;;;;9.20;2.80;;;11.40;99.90;;;;;;5084028;28;20228;-82
2022/05/12 06:00:17;;;;;;;6.37;2.47;;;11.40;99.90;;;;;;5083400;28;20226;-83
2022/05/12 06:02:44;;;;;;;4.67;2.47;;;11.50;99.90;;;;;;5085809;28;20223;-82
2022/05/12 06:05:11;;;;;;;7.67;2.53;;;11.50;99.90;;;;;;5087908;28;20229;-83
2022/05/12 06:07:38;;;;;;;8.60;2.67;;;11.60;99.90;;;;;;5089332;28;20291;-83
2022/05/12 06:10:07;;;;;;;7.57;2.70;;;11.70;99.90;;;;;;5089468;28;20306;-82
2022/05/12 06:12:37;;;;;;;6.73;2.40;;;11.80;99.90;;;;;;5087844;28;20303;-83
2022/05/12 06:15:05;;;;;;;8.07;2.60;;;11.90;99.90;;;;;;5089567;28;20246;-83
2022/05/12 06:17:32;;;;;;;7.00;2.73;;;12.00;99.90;;;;;;5085829;28;20243;-83
2022/05/12 06:19:59;;;;;;;5.40;2.60;;;12.10;99.90;;;;;;5085414;28;20830;-82
2022/05/12 06:22:26;;;;;;;4.07;2.30;;;12.20;99.90;;;;;;5081470;28;20224;-83
2022/05/12 06:24:53;;;;;;;6.67;2.30;;;12.20;99.90;;;;;;5086428;28;20325;-83
2022/05/12 06:27:20;;;;;;;7.70;2.37;;;12.30;99.90;;;;;;5085185;28;20671;-82
2022/05/12 06:29:48;;;;;;;4.10;2.10;;;12.40;99.90;;;;;;5081387;28;20280;-83
2022/05/12 06:32:16;;;;;;;6.33;2.53;;;12.50;99.90;;;;;;5082046;28;20233;-82
2022/05/12 06:34:42;;;;;;;5.20;2.33;;;12.50;99.90;;;;;;5082937;28;20212;-83
2022/05/12 06:37:10;;;;;;;5.50;2.30;;;12.60;99.90;;;;;;5087850;28;20218;-83
2022/05/12 06:39:43;;;;;;;6.37;2.73;;;12.70;99.90;;;;;;5085028;28;20645;-82
2022/05/12 06:42:10;;;;;;;4.93;2.17;;;12.80;99.90;;;;;;5085362;28;20783;-83
2022/05/12 06:44:44;;;;;;;8.03;2.40;;;12.90;99.90;;;;;;5087412;28;20235;-82
2022/05/12 06:47:14;;;;;;;7.67;2.27;;;13.00;99.90;;;;;;5087836;28;20330;-82
2022/05/12 06:49:41;;;;;;;6.27;2.33;;;13.10;99.90;;;;;;5082538;28;20298;-82
2022/05/12 06:52:10;;;;;;;4.50;2.30;;;13.20;99.80;;;;;;5086236;28;20225;-83
2022/05/12 06:54:38;;;;;;;7.97;2.33;;;13.30;99.90;;;;;;5096383;28;20222;-83
2022/05/12 06:57:06;;;;;;;4.53;2.10;;;13.50;99.70;;;;;;5083768;28;20220;-80
2022/05/12 06:59:36;;;;;;;8.67;2.70;;;13.60;99.60;;;;;;5084141;28;20227;-80
2022/05/12 07:02:03;;;;;;;6.47;2.57;;;13.80;99.40;;;;;;5079349;28;20222;-80
2022/05/12 07:04:31;;;;;;;7.53;2.63;;;14.00;99.10;;;;;;5078993;28;20226;-79
2022/05/12 07:06:58;;;;;;;7.63;2.60;;;14.00;99.10;;;;;;5074430;28;20222;-82
2022/05/12 07:09:25;;;;;;;5.13;2.40;;;14.20;99.30;;;;;;5084506;28;20323;-81
2022/05/12 07:11:53;;;;;;;6.27;2.30;;;14.40;98.90;;;;;;5087195;28;20228;-82
2022/05/12 07:14:21;;;;;;;4.97;2.10;;;14.60;98.80;;;;;;5081931;28;20551;-82
2022/05/12 07:16:47;;;;;;;4.20;1.90;;;14.80;98.50;;;;;;5085998;28;20254;-81
2022/05/12 07:19:15;;;;;;;10.50;2.63;;;15.00;98.20;;;;;;5079268;28;20229;-82
2022/05/12 07:27:14;;;;;;;4.50;1.67;;;15.90;95.80;;;;;;5079430;28;20823;-83
2022/05/12 07:29:41;;;;;;;4.07;1.60;;;16.00;95.60;;;;;;5084171;28;20251;-83
2022/05/12 07:32:08;;;;;;;4.40;1.70;;;16.10;95.60;;;;;;5092434;28;20222;-82
2022/05/12 07:34:36;;;;;;;6.63;1.80;;;16.20;95.40;;;;;;5086302;28;20666;-82
2022/05/12 07:37:05;;;;;;;4.90;1.60;;;16.30;94.40;;;;;;5087014;28;20317;-81
2022/05/12 07:39:33;;;;;;;3.73;1.50;;;16.30;93.70;;;;;;5080478;28;20284;-81
2022/05/12 07:42:02;;;;;;;3.77;1.60;;;16.20;94.00;;;;;;5079726;28;20300;-83
2022/05/12 07:44:32;;;;;;;3.37;1.73;;;16.20;93.80;;;;;;5082393;28;20291;-82
2022/05/12 07:47:01;;;;;;;6.60;1.70;;;16.20;94.00;;;;;;5085426;28;20219;-82
2022/05/12 07:49:31;;;;;;;5.67;1.70;;;16.20;93.40;;;;;;5085001;28;20240;-82
2022/05/12 07:51:59;;;;;;;5.20;1.60;;;16.20;93.30;;;;;;5084049;28;20230;-82
2022/05/12 07:54:27;;;;;;;5.60;1.60;;;16.10;92.90;;;;;;5081217;28;20226;-83
2022/05/12 07:56:54;;;;;;;3.27;1.50;;;16.00;92.90;;;;;;5076143;28;20247;-80
2022/05/12 07:59:21;;;;;;;4.33;1.57;;;16.00;93.10;;;;;;5080520;28;20227;-80
2022/05/12 08:01:48;;;;;;;3.67;1.53;;;16.00;92.80;;;;;;5083476;28;20252;-80
2022/05/12 08:04:15;;;;;;;4.20;1.50;;;16.00;93.10;;;;;;5078325;28;20314;-79
2022/05/12 08:06:43;;;;;;;8.33;1.50;;;16.10;92.70;;;;;;5078143;28;20225;-80
2022/05/12 08:09:10;;;;;;;3.57;1.60;;;16.20;93.10;;;;;;5082884;28;20239;-79
2022/05/12 08:11:39;;;;;;;4.70;1.40;;;16.40;92.60;;;;;;5080544;28;21079;-79
2022/05/12 08:14:06;;;;;;;3.07;1.40;;;16.50;91.70;;;;;;5083575;28;20226;-80
2022/05/12 08:16:33;;;;;;;3.60;1.40;;;16.70;91.30;;;;;;5084374;28;20235;-80
2022/05/12 08:19:00;;;;;;;3.60;1.40;;;16.90;91.60;;;;;;5085383;28;20229;-80
2022/05/12 08:21:27;;;;;;;3.97;1.63;;;17.00;91.20;;;;;;5082376;28;20730;-79
2022/05/12 08:23:54;;;;;;;4.07;1.80;;;17.20;90.70;;;;;;5083823;28;20219;-80
2022/05/12 08:26:21;;;;;;;5.40;1.60;;;17.20;90.70;;;;;;5080734;28;20214;-78
2022/05/12 08:28:50;;;;;;;4.43;1.67;;;17.30;90.20;;;;;;5083102;28;20222;-79
2022/05/12 08:31:20;;;;;;;3.53;1.43;;;17.30;90.70;;;;;;5075401;28;20227;-82
2022/05/12 08:33:47;;;;;;;4.03;1.77;;;17.40;90.70;;;;;;5069914;28;21109;-80
2022/05/12 08:36:14;;;;;;;4.20;2.50;;;17.60;90.60;;;;;;5078713;28;20223;-80
2022/05/12 08:38:44;;;;;;;6.80;2.00;;;17.80;90.60;;;;;;5079346;28;20239;-79
2022/05/12 08:41:19;;;;;;;4.40;1.50;;;18.00;90.30;;;;;;5079532;28;20754;-80
2022/05/12 08:43:58;;;;;;;4.47;1.27;;;18.40;88.20;;;;;;5078099;28;20221;-80
2022/05/12 08:46:27;;;;;;;3.75;1.33;;;18.80;86.80;;;;;;5078389;28;20225;-79
2022/05/12 08:49:04;;;;;;;3.67;1.50;;;19.20;86.50;;;;;;5081081;28;20222;-79
2022/05/12 08:51:35;;;;;;;4.45;1.27;;;19.50;85.20;;;;;;5079590;28;20226;-80
2022/05/12 08:54:07;;;;;;;3.20;1.50;;;19.60;83.60;;;;;;5079509;28;20221;-80
2022/05/12 08:56:35;;;;;;;3.83;1.23;;;19.80;82.90;;;;;;5083513;28;20231;-80
2022/05/12 08:59:03;;;;;;;4.40;1.20;;;19.90;82.40;;;;;;5084352;28;20211;-79
2022/05/12 09:01:37;;;;;;;6.13;1.55;;;20.10;81.20;;;;;;5074673;28;20612;-80
2022/05/12 09:04:29;;;;;;;3.50;1.20;;;20.20;81.00;;;;;;5071734;28;20228;-80
2022/05/12 09:07:02;;;;;;;3.30;1.20;;;20.40;79.00;;;;;;5083879;28;20250;-80
2022/05/12 09:09:35;;;;;;;4.72;1.63;;;20.60;78.50;;;;;;5082140;28;20230;-79
2022/05/12 09:12:17;;;;;;;5.65;1.35;;;20.60;78.40;;;;;;5076883;28;20242;-81
2022/05/12 09:14:50;;;;;;;4.68;1.40;;;20.50;76.90;;;;;;5074713;28;20317;-81
2022/05/12 09:17:21;;;;;;;4.00;1.33;;;20.40;76.40;;;;;;5083183;28;20222;-80
2022/05/12 09:19:47;;;;;;;4.20;1.10;;;20.20;77.20;;;;;;5087957;28;20229;-79
2022/05/12 09:22:14;;;;;;;3.67;1.30;;;20.10;77.90;;;;;;5086935;28;20313;-80
2022/05/12 09:24:42;;;;;;;4.05;1.65;;;20.20;77.30;;;;;;5080848;28;20540;-80
2022/05/12 09:27:11;;;;;;;3.25;1.30;;;20.30;76.70;;;;;;5082241;28;20215;-80
2022/05/12 09:29:46;;;;;;;2.17;1.10;;;20.40;77.20;;;;;;5079648;28;20226;-80
2022/05/12 09:32:22;;;;;;;3.80;1.20;;;20.50;76.80;;;;;;5085916;28;20305;-79
2022/05/12 09:35:11;;;;;;;2.60;1.00;;;20.80;76.00;;;;;;5083257;28;20713;-80
2022/05/12 09:37:41;;;;;;;3.20;1.08;;;21.10;75.20;;;;;;5084776;28;20691;-80
2022/05/12 09:40:32;;;;;;;2.85;1.48;;;21.50;75.50;;;;;;5086663;28;20222;-80
2022/05/12 09:43:01;;;;;;;5.10;1.45;;;22.00;73.00;;;;;;5075740;28;20233;-80
2022/05/12 09:45:32;;;;;;;5.38;1.70;;;22.20;72.60;;;;;;5086976;28;20237;-80
2022/05/12 09:48:19;;;;;;;2.15;1.00;;;22.40;70.00;;;;;;5084147;28;20591;-80
2022/05/12 09:50:46;;;;;;;4.65;1.50;;;22.60;68.40;;;;;;5083335;28;20242;-80
2022/05/12 09:53:14;;;;;;;3.53;1.10;;;22.80;68.90;;;;;;5085574;28;20225;-80
2022/05/12 09:55:42;;;;;;;2.67;1.08;;;23.10;67.70;;;;;;5085803;28;20229;-80
2022/05/12 09:58:29;;;;;;;4.35;1.20;;;23.20;66.90;;;;;;5086525;28;20219;-80
2022/05/12 10:01:20;;;;;;;2.78;0.95;;;23.40;66.20;;;;;;5082055;28;20218;-80
2022/05/12 10:09:20;;;;;;;2.83;1.10;;;23.20;64.30;;;;;;5086759;28;20218;-81
2022/05/12 10:11:53;;;;;;;2.97;0.95;;;23.10;63.70;;;;;;5084568;28;20305;-81
2022/05/12 10:14:30;;;;;;;5.50;1.60;;;22.90;60.60;;;;;;5084670;28;20222;-80
2022/05/12 10:17:02;;;;;;;2.10;1.00;;;22.70;62.10;;;;;;5078560;28;20225;-80
2022/05/12 10:19:29;;;;;;;5.03;0.90;;;22.60;61.60;;;;;;5084766;28;20218;-80
2022/05/12 10:22:08;;;;;;;2.53;0.90;;;22.60;62.30;;;;;;5086471;28;20211;-80
2022/05/12 10:24:43;;;;;;;3.53;1.30;;;22.60;61.90;;;;;;5085380;28;20307;-79
2022/05/12 10:27:15;;;;;;;2.22;0.98;;;22.50;60.90;;;;;;5078181;28;20544;-80
2022/05/12 10:29:51;;;;;;;3.78;1.05;;;22.50;61.10;;;;;;5081428;28;20237;-80
2022/05/12 10:32:33;;;;;;;2.45;1.33;;;22.50;62.50;;;;;;5085594;28;20222;-80
2022/05/12 10:35:09;;;;;;;4.25;1.20;;;22.60;62.60;;;;;;5075479;28;20225;-80
2022/05/12 10:37:48;;;;;;;6.40;1.30;;;22.70;60.20;;;;;;5083091;28;20690;-79
2022/05/12 10:40:25;;;;;;;2.65;1.02;;;22.70;60.50;;;;;;5085090;28;20226;-80
2022/05/12 10:43:00;;;;;;;3.30;1.35;;;22.70;59.10;;;;;;5085184;28;20231;-80
2022/05/12 10:45:33;;;;;;;6.40;1.20;;;22.70;59.30;;;;;;5079643;28;20828;-80
2022/05/12 10:48:20;;;;;;;2.65;1.08;;;22.70;59.20;;;;;;5084874;28;20219;-80
2022/05/12 10:50:55;;;;;;;2.88;0.70;;;22.70;58.30;;;;;;5082040;28;20327;-80
2022/05/12 10:53:32;;;;;;;4.00;0.88;;;22.70;58.10;;;;;;5082773;28;20250;-79
2022/05/12 10:56:10;;;;;;;1.58;0.90;;;22.60;57.20;;;;;;5086076;28;20214;-80
2022/05/12 10:58:44;;;;;;;4.28;1.23;;;22.40;57.00;;;;;;5083977;28;20221;-80
2022/05/12 11:01:17;;;;;;;2.67;0.90;;;22.20;57.90;;;;;;5086019;28;20223;-80
2022/05/12 11:03:53;;;;;;;5.88;1.00;;;22.00;57.50;;;;;;5076474;28;20253;-80
2022/05/12 11:06:23;;;;;;;4.45;1.10;;;21.80;58.10;;;;;;5085632;28;21001;-80
2022/05/12 11:08:55;;;;;;;2.63;0.80;;;21.80;59.50;;;;;;5084612;28;20254;-80
2022/05/12 11:11:25;;;;;;;3.65;1.15;;;21.80;59.80;;;;;;5079087;28;20282;-80
2022/05/12 11:13:58;;;;;;;2.83;1.05;;;22.10;60.00;;;;;;5084719;28;20313;-80
2022/05/12 11:16:30;;;;;;;2.78;1.23;;;22.40;59.70;;;;;;5074412;28;20330;-80
2022/05/12 11:19:06;;;;;;;2.25;0.95;;;22.70;59.90;;;;;;5085849;28;20739;-80
2022/05/12 11:21:41;;;;;;;4.57;1.25;;;23.00;58.50;;;;;;5085050;28;20234;-80
2022/05/12 11:24:22;;;;;;;1.52;0.88;;;23.30;58.20;;;;;;5084161;28;20229;-81
2022/05/12 11:27:12;;;;;;;2.30;1.15;;;23.50;57.60;;;;;;5084664;28;20242;-80
2022/05/12 11:29:51;;;;;;;5.57;1.25;;;23.60;57.50;;;;;;5078810;28;20230;-80
2022/05/12 11:32:43;;;;;;;3.55;1.10;;;23.50;57.20;;;;;;5083190;28;20315;-80
2022/05/12 11:35:18;;;;;;;3.80;1.08;;;23.50;56.90;;;;;;5076360;28;20306;-80
2022/05/12 11:37:57;;;;;;;1.60;0.90;;;23.40;56.50;;;;;;5083916;28;20229;-80
2022/05/12 11:40:53;;;;;;;2.50;1.00;;;23.30;56.60;;;;;;5084575;28;20789;-79
2022/05/12 11:46:41;;;;;;;3.20;1.20;;;22.90;55.70;;;;;;5078303;28;20222;-80
2022/05/12 11:49:27;;;;;;;2.03;1.00;;;22.80;56.70;;;;;;5078458;28;20219;-80
2022/05/12 11:52:03;;;;;;;3.42;0.90;;;22.70;57.10;;;;;;5084366;28;20228;-80
2022/05/12 11:54:34;;;;;;;3.38;1.25;;;22.70;56.90;;;;;;5070472;28;20244;-80
2022/05/12 11:57:04;;;;;;;3.83;1.15;;;22.60;56.30;;;;;;5085618;28;20708;-80
2022/05/12 11:59:49;;;;;;;4.10;1.08;;;22.40;56.50;;;;;;5085189;28;20226;-80
2022/05/12 12:02:47;;;;;;;4.65;1.40;;;22.20;57.30;;;;;;5081380;28;20222;-81
2022/05/12 12:05:53;;;;;;;1.50;1.05;;;22.00;57.50;;;;;;5032969;28;20881;-79
2022/05/12 12:08:40;;;;;;;2.80;1.25;;;21.90;57.40;;;;;;5081242;28;20245;-81
2022/05/12 12:11:27;;;;;;;1.80;1.08;;;22.10;58.30;;;;;;5076421;28;20378;-79
2022/05/12 12:13:56;;;;;;;5.43;1.15;;;22.30;58.80;;;;;;5082884;28;20285;-80
2022/05/12 12:16:25;;;;;;;3.60;1.02;;;22.60;58.90;;;;;;5083981;28;20318;-80
2022/05/12 12:18:58;;;;;;;3.05;1.23;;;22.90;58.00;;;;;;5083663;28;20226;-80
2022/05/12 12:21:45;;;;;;;2.70;1.08;;;23.20;57.90;;;;;;5074091;28;20219;-80
2022/05/12 12:24:32;;;;;;;3.47;1.00;;;23.60;56.70;;;;;;5043229;28;20610;-80
2022/05/12 12:27:31;;;;;;;3.88;1.05;;;23.90;56.00;;;;;;5076821;28;20218;-80
2022/05/12 12:30:21;;;;;;;2.85;1.00;;;24.20;55.40;;;;;;5083527;28;20276;-80
2022/05/12 12:33:07;;;;;;;4.10;1.13;;;24.40;55.70;;;;;;5080553;28;20219;-80
2022/05/12 12:35:54;;;;;;;3.63;1.33;;;24.50;55.40;;;;;;5080168;28;20222;-80
2022/05/12 12:38:57;;;;;;;1.73;1.10;;;24.50;54.60;;;;;;5075785;28;20222;-80
2022/05/12 12:41:39;;;;;;;2.45;1.00;;;24.50;53.40;;;;;;5080978;28;20241;-80
2022/05/12 12:44:12;;;;;;;4.43;1.13;;;24.40;53.10;;;;;;5073197;28;20755;-80
2022/05/12 12:46:49;;;;;;;3.33;1.00;;;24.20;53.80;;;;;;5083550;28;20223;-80
2022/05/12 12:49:21;;;;;;;1.80;0.90;;;24.10;54.10;;;;;;5084405;28;20276;-80
2022/05/12 12:51:57;;;;;;;3.90;0.80;;;23.90;53.40;;;;;;5087110;28;20664;-79
2022/05/12 12:57:15;;;;;;;2.92;1.13;;;23.80;54.30;;;;;;5076590;28;20295;-81
2022/05/12 12:59:48;;;;;;;1.98;1.00;;;23.80;53.90;;;;;;5088428;28;20234;-79
2022/05/12 13:02:27;;;;;;;3.58;0.90;;;23.90;52.90;;;;;;5087146;28;20798;-80
2022/05/12 13:04:56;;;;;;;2.75;0.95;;;24.00;52.90;;;;;;5087728;28;20826;-80
2022/05/12 13:07:28;;;;;;;3.20;1.00;;;24.10;53.10;;;;;;5081190;28;20220;-80
2022/05/12 13:09:56;;;;;;;3.30;0.93;;;24.10;51.80;;;;;;5081154;28;20922;-80
2022/05/12 13:12:26;;;;;;;2.38;1.02;;;24.10;52.60;;;;;;5084541;28;20293;-80
2022/05/12 13:14:54;;;;;;;2.13;0.93;;;24.20;51.70;;;;;;5084969;28;20218;-79
2022/05/12 13:17:25;;;;;;;3.13;1.13;;;24.20;51.60;;;;;;5085102;28;20238;-80
2022/05/12 13:19:53;;;;;;;1.70;0.80;;;24.10;51.30;;;;;;5086560;28;20397;-80
2022/05/12 13:22:23;;;;;;;2.70;0.90;;;24.10;50.70;;;;;;5085212;28;20254;-80
2022/05/12 13:24:50;;;;;;;3.05;1.00;;;24.00;50.30;;;;;;5079801;28;20219;-80
2022/05/12 13:27:20;;;;;;;2.95;1.20;;;23.80;50.50;;;;;;5077057;28;20222;-80
2022/05/12 13:29:49;;;;;;;2.85;1.10;;;23.50;50.30;;;;;;5083886;28;20219;-80